Time;durP1;ratioP1;P1;durP2;ratioP2;P2;SDS_P1;SDS_P2;PMS_P1;PMS_P2;Temp;Humidity;BMP_temperature;BMP_pressure;BME280_temperature;BME280_humidity;BME280_pressure;Samples;Min_cycle;Max_cycle;Signal;HPM_P1;HPM_P2
2022/02/23 00:01:39;;;;;;;;;65.25;51.75;;;;;;;;6490284;39;8884;-52
2022/02/23 00:07:41;;;;;;;;;58.50;48.50;;;;;;;;6490652;46;8897;-54
2022/02/23 00:13:43;;;;;;;;;58.00;50.00;;;;;;;;6491376;39;9650;-56
2022/02/23 00:19:46;;;;;;;;;42.00;35.00;;;;;;;;6489823;46;8919;-51
2022/02/23 00:25:48;;;;;;;;;56.00;46.00;;;;;;;;6490455;46;8951;-51
2022/02/23 00:31:51;;;;;;;;;60.75;46.75;;;;;;;;6490627;39;9553;-54
2022/02/23 00:37:53;;;;;;;;;51.25;44.00;;;;;;;;6490661;39;8879;-55
2022/02/23 00:43:55;;;;;;;;;57.75;46.50;;;;;;;;6491359;31;9071;-54
2022/02/23 00:49:58;;;;;;;;;59.50;45.25;;;;;;;;6490508;39;8902;-53
2022/02/23 00:56:00;;;;;;;;;49.75;44.00;;;;;;;;6490422;46;8893;-52
2022/02/23 01:02:03;;;;;;;;;48.25;40.75;;;;;;;;6490466;39;8922;-51
2022/02/23 01:08:05;;;;;;;;;49.75;43.25;;;;;;;;6488609;46;8949;-54
2022/02/23 01:14:08;;;;;;;;;54.00;44.33;;;;;;;;6491065;31;8940;-54
2022/02/23 01:20:11;;;;;;;;;54.75;46.50;;;;;;;;6490204;46;8861;-53
2022/02/23 01:26:13;;;;;;;;;56.25;46.50;;;;;;;;6489874;39;8910;-54
2022/02/23 01:32:15;;;;;;;;;51.75;46.50;;;;;;;;6489800;46;8921;-55
2022/02/23 01:38:17;;;;;;;;;55.75;46.25;;;;;;;;6489319;46;8884;-54
2022/02/23 01:44:20;;;;;;;;;60.75;48.25;;;;;;;;6490116;39;8992;-53
2022/02/23 01:50:22;;;;;;;;;45.50;42.00;;;;;;;;6490635;39;8932;-54
2022/02/23 01:56:24;;;;;;;;;51.75;44.00;;;;;;;;6490279;39;8963;-60
2022/02/23 02:02:26;;;;;;;;;55.75;45.25;;;;;;;;6489465;31;8896;-53
2022/02/23 02:08:29;;;;;;;;;47.50;43.50;;;;;;;;6489894;31;8941;-54
2022/02/23 02:14:31;;;;;;;;;47.75;41.50;;;;;;;;6490223;31;9136;-52
2022/02/23 02:20:33;;;;;;;;;47.25;44.25;;;;;;;;6488857;47;9024;-52
2022/02/23 02:26:35;;;;;;;;;55.00;46.50;;;;;;;;6491568;31;8943;-54
2022/02/23 02:32:38;;;;;;;;;44.50;40.75;;;;;;;;6492237;39;9008;-53
2022/02/23 02:38:42;;;;;;;;;57.00;45.75;;;;;;;;6491967;39;8907;-55
2022/02/23 02:44:45;;;;;;;;;58.75;46.50;;;;;;;;6491955;46;9064;-55
2022/02/23 02:50:47;;;;;;;;;50.25;44.25;;;;;;;;6491334;31;8892;-50
2022/02/23 02:56:49;;;;;;;;;41.50;40.25;;;;;;;;6491245;46;8905;-53
2022/02/23 03:02:51;;;;;;;;;66.50;53.00;;;;;;;;6491603;39;8940;-54
2022/02/23 03:08:55;;;;;;;;;57.50;45.50;;;;;;;;6491938;39;8972;-51
2022/02/23 03:14:57;;;;;;;;;59.75;50.25;;;;;;;;6491490;31;8942;-54
2022/02/23 03:21:00;;;;;;;;;71.00;57.50;;;;;;;;6491490;39;8865;-55
2022/02/23 03:27:02;;;;;;;;;60.25;51.00;;;;;;;;6491784;31;9018;-53
2022/02/23 03:33:09;;;;;;;;;61.50;50.25;;;;;;;;6491350;39;8933;-53
2022/02/23 03:39:11;;;;;;;;;63.25;51.50;;;;;;;;6490547;46;8989;-50
2022/02/23 03:45:13;;;;;;;;;48.75;44.25;;;;;;;;6491451;39;8921;-55
2022/02/23 03:51:16;;;;;;;;;51.25;47.25;;;;;;;;6490285;46;8986;-54
2022/02/23 03:57:19;;;;;;;;;55.00;44.25;;;;;;;;6490864;46;8873;-54
2022/02/23 04:03:21;;;;;;;;;47.25;41.25;;;;;;;;6490873;39;8919;-56
2022/02/23 04:09:23;;;;;;;;;38.00;34.75;;;;;;;;6490625;31;8937;-53
2022/02/23 04:15:25;;;;;;;;;42.25;41.50;;;;;;;;6490766;31;8958;-55
2022/02/23 04:21:28;;;;;;;;;36.75;33.25;;;;;;;;6490728;39;8890;-51
2022/02/23 04:27:32;;;;;;;;;30.75;30.75;;;;;;;;6490740;31;8864;-53
2022/02/23 04:33:35;;;;;;;;;43.00;36.33;;;;;;;;6490830;39;8960;-50
2022/02/23 04:39:37;;;;;;;;;32.50;30.25;;;;;;;;6490742;31;8994;-49
2022/02/23 04:45:42;;;;;;;;;35.25;32.00;;;;;;;;6490470;39;8984;-52
2022/02/23 04:51:45;;;;;;;;;32.50;23.50;;;;;;;;6490593;39;8856;-54
2022/02/23 04:57:47;;;;;;;;;38.50;32.25;;;;;;;;4678743;36;20001411;-53
2022/02/23 05:03:49;;;;;;;;;31.75;30.00;;;;;;;;6462894;31;9051;-58
2022/02/23 05:09:52;;;;;;;;;27.50;26.50;;;;;;;;6492090;46;8944;-57
2022/02/23 05:15:56;;;;;;;;;34.00;29.25;;;;;;;;6493518;39;8869;-59
2022/02/23 05:21:58;;;;;;;;;33.75;30.25;;;;;;;;6492349;46;8902;-57
2022/02/23 05:28:01;;;;;;;;;31.25;28.00;;;;;;;;6493286;31;8919;-58
2022/02/23 05:34:03;;;;;;;;;35.50;30.75;;;;;;;;6493270;31;8851;-58
2022/02/23 05:40:07;;;;;;;;;23.75;23.75;;;;;;;;6492302;39;8903;-58
2022/02/23 05:46:09;;;;;;;;;32.25;29.75;;;;;;;;6492738;46;8952;-57
2022/02/23 05:52:15;;;;;;;;;39.25;39.25;;;;;;;;6491810;39;8895;-57
2022/02/23 05:58:17;;;;;;;;;37.00;37.00;;;;;;;;6492880;46;8885;-57
2022/02/23 06:04:19;;;;;;;;;40.75;34.00;;;;;;;;6494290;31;9083;-59
2022/02/23 06:10:24;;;;;;;;;27.00;23.75;;;;;;;;6510380;36;8901;-59
2022/02/23 06:16:27;;;;;;;;;34.75;31.25;;;;;;;;6491472;46;8934;-58
2022/02/23 06:22:29;;;;;;;;;34.25;30.75;;;;;;;;6492662;46;8850;-58
2022/02/23 06:28:33;;;;;;;;;29.75;28.00;;;;;;;;6493116;31;8884;-59
2022/02/23 06:34:36;;;;;;;;;30.25;26.75;;;;;;;;6492739;31;9506;-56
2022/02/23 06:40:38;;;;;;;;;34.25;28.25;;;;;;;;6488295;39;9029;-56
2022/02/23 06:46:40;;;;;;;;;35.00;32.50;;;;;;;;6489481;39;8956;-59
2022/02/23 06:52:45;;;;;;;;;24.25;21.00;;;;;;;;6487743;39;8926;-57
2022/02/23 06:58:49;;;;;;;;;28.00;27.25;;;;;;;;6486515;39;8920;-56
2022/02/23 07:04:53;;;;;;;;;36.00;28.00;;;;;;;;6483328;39;9003;-57
2022/02/23 07:10:55;;;;;;;;;31.00;29.75;;;;;;;;6485691;39;8928;-58
2022/02/23 07:16:57;;;;;;;;;31.50;28.25;;;;;;;;6487141;39;8913;-59
2022/02/23 07:23:05;;;;;;;;;35.25;33.25;;;;;;;;6485486;39;9072;-57
2022/02/23 07:29:11;;;;;;;;;42.00;37.50;;;;;;;;6485323;46;8930;-56
2022/02/23 07:35:15;;;;;;;;;42.00;38.25;;;;;;;;6486144;39;9021;-60
2022/02/23 07:41:25;;;;;;;;;25.00;23.50;;;;;;;;6486170;31;9645;-56
2022/02/23 07:47:48;;;;;;;;;16.75;16.75;;;;;;;;6486221;39;8985;-58
2022/02/23 07:53:54;;;;;;;;;25.25;22.00;;;;;;;;6485448;46;8959;-57
2022/02/23 07:59:56;;;;;;;;;23.75;22.50;;;;;;;;6485145;31;8966;-56
2022/02/23 08:05:58;;;;;;;;;23.00;22.75;;;;;;;;6485150;31;9153;-58
2022/02/23 08:12:03;;;;;;;;;26.75;26.25;;;;;;;;6485110;39;9013;-58
2022/02/23 08:24:27;;;;;;;;;21.75;21.75;;;;;;;;6484134;39;9001;-59
2022/02/23 08:30:29;;;;;;;;;33.00;25.50;;;;;;;;6483923;31;9600;-59
2022/02/23 08:36:33;;;;;;;;;30.25;25.25;;;;;;;;6484319;31;8962;-60
2022/02/23 08:42:38;;;;;;;;;22.25;21.50;;;;;;;;6483941;31;9586;-58
2022/02/23 08:48:40;;;;;;;;;31.75;26.50;;;;;;;;6485857;39;9404;-58
2022/02/23 08:54:53;;;;;;;;;26.25;24.75;;;;;;;;6484792;31;8980;-58
2022/02/23 09:00:58;;;;;;;;;37.50;33.50;;;;;;;;6484826;46;8923;-57
2022/02/23 09:07:00;;;;;;;;;22.75;19.75;;;;;;;;6485087;46;8934;-58
2022/02/23 09:13:05;;;;;;;;;26.50;22.50;;;;;;;;6485258;31;8948;-59
2022/02/23 09:19:08;;;;;;;;;27.00;24.25;;;;;;;;6484464;39;9427;-59
2022/02/23 09:25:10;;;;;;;;;26.25;23.75;;;;;;;;6485473;39;8939;-58
2022/02/23 09:31:15;;;;;;;;;27.00;23.75;;;;;;;;6485402;46;8904;-60
2022/02/23 09:37:19;;;;;;;;;31.25;28.25;;;;;;;;6482941;46;9092;-57
2022/02/23 09:43:22;;;;;;;;;31.50;27.50;;;;;;;;6484005;39;8988;-57
2022/02/23 09:49:24;;;;;;;;;27.25;25.75;;;;;;;;6482112;46;8967;-58
2022/02/23 09:55:29;;;;;;;;;26.75;26.50;;;;;;;;6484142;31;8980;-58
2022/02/23 10:01:33;;;;;;;;;31.25;31.25;;;;;;;;6483292;31;9512;-58
2022/02/23 10:07:40;;;;;;;;;46.75;40.00;;;;;;;;6484180;47;8957;-57
2022/02/23 10:13:50;;;;;;;;;36.25;35.50;;;;;;;;6483563;39;9034;-57
